PWC weather

El Porvenir Airport
Puerto Wilches, Santander Department, Colombia

Public forecast

Using degrees Celsius for public forecast. Weather courtesy of forecast.io.

Closest aviation weather report (METAR) to El Porvenir Airport

Report is more than 6 hours old.

Closest report is YariguĂ­es Airport, 21.9 nm (40.6 km) SW. Retrieved 2020/05/26 20:00 UTC (11 hours ago):

SKEJ 262000Z 03003KT 9999 FEW020 SCT200 32/26 A2971

Closest aviation forecast (TAF) to El Porvenir Airport

Closest forecast is Palonegro Airport, 25.9 nm (48.0 km) ESE. Retrieved 2020/05/27 06:36 UTC (0 seconds ago):

TAF TAF SKBG 270430Z 2706/2806 19004KT 9999 SCT012 SCT070 TEMPO 2709/2713 5000 BCFG DZ SCT010 BECMG 2714/2715 32008KT TEMPO 2722/2801 4000 TSRA SCT010CB TX28/2718Z TN19/2711Z